PWSweather.com
Personal Weather Stations
Station Observations
KNVELKO7
Elko, NV 89801

Elko, NV 89801

Lat: 40.963233, Lon: -115.592836

Elevation: 5230

Station Type: WS-2812

Latest ConditionsUpdated 3:25:21 AM PDT Wednesday, Apr 23, 2014
Currently Today's Max Today's Min Today's Average
Temperature 26.5°F-3.1°C 30.4°F-0.9°C 26.5°F-3.1°C 28.8°F-1.8°C
Dew Point 21.7°F-5.7°C 24.8°F-4.0°C 21.7°F-5.7°C 23.8°F-4.6°C
Winds 0.2 mph WNW0.3 kmh WNW 6.3 mph WSW10.1 kmh WSW - 3.0 mph 4.8 kmh
Wind Gusts 1.8 mph2.9 kmh 6.9 mph11.1 kmh - -
Humidity 82% 83% 79% 81%
Pressure 29.96 in1014.6 mb 29.96 in1014.6 mb 29.95 in1014.2 mb -
Hour Temp Dew Point Humidity Winds Wind Gusts Pressure Precip Precip Rate Daily Precip Total
03:25 AM 26.5°F-3.1°C 21.7°F-5.7°C 82% 0.2 mph WNW0.3 kmh WNW 1.8 mph2.9 kmh 29.96 in1014.6 mb 0.00 in0.0 mm 0.00 in/hr0.0 mm/hr 0.00 in0.0 mm
03:20 AM 26.8°F-2.9°C 22.0°F-5.6°C 82% 1.1 mph WSW1.8 kmh WSW 1.1 mph1.8 kmh 29.96 in1014.6 mb 0.00 in0.0 mm 0.00 in/hr0.0 mm/hr 0.00 in0.0 mm
03:15 AM 27.0°F-2.8°C 22.1°F-5.5°C 82% Calm Calm -- 29.96 in1014.6 mb 0.00 in0.0 mm 0.00 in/hr0.0 mm/hr 0.00 in0.0 mm
03:10 AM 27.2°F-2.7°C 22.3°F-5.4°C 82% Calm Calm 2.0 mph3.2 kmh 29.96 in1014.6 mb 0.00 in0.0 mm 0.00 in/hr0.0 mm/hr 0.00 in0.0 mm
03:05 AM 27.5°F-2.5°C 22.7°F-5.2°C 82% Calm Calm 2.0 mph3.2 kmh 29.96 in1014.6 mb 0.00 in0.0 mm 0.00 in/hr0.0 mm/hr 0.00 in0.0 mm
03:01 AM 27.7°F-2.4°C 22.9°F-5.1°C 82% 1.9 mph SW3.1 kmh SW 2.2 mph3.5 kmh 29.95 in1014.2 mb 0.00 in0.0 mm 0.00 in/hr0.0 mm/hr 0.00 in0.0 mm
02:55 AM 27.9°F-2.3°C 23.0°F-5.0°C 82% 2.0 mph SW3.2 kmh SW 2.5 mph4.0 kmh 29.95 in1014.2 mb 0.00 in0.0 mm 0.00 in/hr0.0 mm/hr 0.00 in0.0 mm
02:50 AM 28.1°F-2.2°C 23.2°F-4.9°C 82% 1.5 mph SW2.4 kmh SW 3.4 mph5.5 kmh 29.95 in1014.2 mb 0.00 in0.0 mm 0.00 in/hr0.0 mm/hr 0.00 in0.0 mm
02:45 AM 28.3°F-2.1°C 23.4°F-4.8°C 82% 2.2 mph SW3.5 kmh SW 3.6 mph5.8 kmh 29.95 in1014.2 mb 0.00 in0.0 mm 0.00 in/hr0.0 mm/hr 0.00 in0.0 mm
02:40 AM 28.4°F-2.0°C 24.0°F-4.4°C 83% 2.5 mph SW4.0 kmh SW 3.6 mph5.8 kmh 29.95 in1014.2 mb 0.00 in0.0 mm 0.00 in/hr0.0 mm/hr 0.00 in0.0 mm
02:35 AM 28.4°F-2.0°C 24.0°F-4.4°C 83% 0.6 mph WSW1.0 kmh WSW 2.7 mph4.3 kmh 29.95 in1014.2 mb 0.00 in0.0 mm 0.00 in/hr0.0 mm/hr 0.00 in0.0 mm
02:30 AM 28.4°F-2.0°C 24.0°F-4.4°C 83% 2.3 mph WSW3.7 kmh WSW 2.7 mph4.3 kmh 29.95 in1014.2 mb 0.00 in0.0 mm 0.00 in/hr0.0 mm/hr 0.00 in0.0 mm
02:25 AM 28.4°F-2.0°C 24.0°F-4.4°C 83% 0.2 mph NNW0.3 kmh NNW 4.5 mph7.2 kmh 29.95 in1014.2 mb 0.00 in0.0 mm 0.00 in/hr0.0 mm/hr 0.00 in0.0 mm
02:20 AM 28.4°F-2.0°C 24.0°F-4.4°C 83% 2.9 mph WNW4.7 kmh WNW 4.5 mph7.2 kmh 29.95 in1014.2 mb 0.00 in0.0 mm 0.00 in/hr0.0 mm/hr 0.00 in0.0 mm
02:15 AM 28.4°F-2.0°C 24.0°F-4.4°C 83% 1.6 mph SW2.6 kmh SW 3.4 mph5.5 kmh 29.96 in1014.6 mb 0.00 in0.0 mm 0.00 in/hr0.0 mm/hr 0.00 in0.0 mm
02:10 AM 28.4°F-2.0°C 24.0°F-4.4°C 83% 1.5 mph NW2.4 kmh NW 3.8 mph6.1 kmh 29.96 in1014.6 mb 0.00 in0.0 mm 0.00 in/hr0.0 mm/hr 0.00 in0.0 mm
02:05 AM 28.3°F-2.1°C 23.4°F-4.8°C 82% 2.0 mph N3.2 kmh N 5.4 mph8.7 kmh 29.95 in1014.2 mb 0.00 in0.0 mm 0.00 in/hr0.0 mm/hr 0.00 in0.0 mm
02:00 AM 28.4°F-2.0°C 24.0°F-4.4°C 83% 0.7 mph W1.1 kmh W 5.8 mph9.3 kmh 29.95 in1014.2 mb 0.00 in0.0 mm 0.00 in/hr0.0 mm/hr 0.00 in0.0 mm
01:55 AM 28.4°F-2.0°C 23.6°F-4.7°C 82% 5.6 mph W9.0 kmh W 5.8 mph9.3 kmh 29.95 in1014.2 mb 0.00 in0.0 mm 0.00 in/hr0.0 mm/hr 0.00 in0.0 mm
01:50 AM 28.8°F-1.8°C 24.3°F-4.3°C 83% 3.9 mph SW6.3 kmh SW 6.9 mph11.1 kmh 29.95 in1014.2 mb 0.00 in0.0 mm 0.00 in/hr0.0 mm/hr 0.00 in0.0 mm
01:45 AM 28.8°F-1.8°C 24.3°F-4.3°C 83% 6.3 mph WSW10.1 kmh WSW 6.9 mph11.1 kmh 29.96 in1014.6 mb 0.00 in0.0 mm 0.00 in/hr0.0 mm/hr 0.00 in0.0 mm
01:40 AM 28.6°F-1.9°C 23.8°F-4.6°C 82% 6.3 mph SW10.1 kmh SW 6.3 mph10.1 kmh 29.95 in1014.2 mb 0.00 in0.0 mm 0.00 in/hr0.0 mm/hr 0.00 in0.0 mm
01:35 AM 28.6°F-1.9°C 23.8°F-4.6°C 82% 5.1 mph SW8.2 kmh SW 5.6 mph9.0 kmh 29.95 in1014.2 mb 0.00 in0.0 mm 0.00 in/hr0.0 mm/hr 0.00 in0.0 mm
01:30 AM 28.6°F-1.9°C 23.8°F-4.6°C 82% 4.3 mph SW6.9 kmh SW 6.5 mph10.5 kmh 29.95 in1014.2 mb 0.00 in0.0 mm 0.00 in/hr0.0 mm/hr 0.00 in0.0 mm
01:25 AM 28.8°F-1.8°C 23.9°F-4.5°C 82% 2.8 mph SW4.5 kmh SW 6.5 mph10.5 kmh 29.95 in1014.2 mb 0.00 in0.0 mm 0.00 in/hr0.0 mm/hr 0.00 in0.0 mm
01:20 AM 28.8°F-1.8°C 23.7°F-4.6°C 81% 3.7 mph SW6.0 kmh SW 5.8 mph9.3 kmh 29.95 in1014.2 mb 0.00 in0.0 mm 0.00 in/hr0.0 mm/hr 0.00 in0.0 mm
01:15 AM 29.0°F-1.7°C 23.9°F-4.5°C 81% 4.9 mph WSW7.9 kmh WSW 5.8 mph9.3 kmh 29.95 in1014.2 mb 0.00 in0.0 mm 0.00 in/hr0.0 mm/hr 0.00 in0.0 mm
01:10 AM 29.2°F-1.6°C 24.0°F-4.4°C 81% 2.7 mph SW4.3 kmh SW 4.3 mph6.9 kmh 29.95 in1014.2 mb 0.00 in0.0 mm 0.00 in/hr0.0 mm/hr 0.00 in0.0 mm
01:05 AM 29.2°F-1.6°C 24.0°F-4.4°C 81% 4.0 mph WSW6.4 kmh WSW 5.6 mph9.0 kmh 29.95 in1014.2 mb 0.00 in0.0 mm 0.00 in/hr0.0 mm/hr 0.00 in0.0 mm
01:00 AM 29.5°F-1.4°C 24.1°F-4.4°C 80% 4.7 mph SW7.6 kmh SW 6.5 mph10.5 kmh 29.96 in1014.6 mb 0.00 in0.0 mm 0.00 in/hr0.0 mm/hr 0.00 in0.0 mm
12:55 AM 29.5°F-1.4°C 24.1°F-4.4°C 80% 5.9 mph SW9.5 kmh SW 6.5 mph10.5 kmh 29.95 in1014.2 mb 0.00 in0.0 mm 0.00 in/hr0.0 mm/hr 0.00 in0.0 mm
12:50 AM 29.9°F-1.2°C 24.5°F-4.2°C 80% 5.1 mph WSW8.2 kmh WSW 5.4 mph8.7 kmh 29.96 in1014.6 mb 0.00 in0.0 mm 0.00 in/hr0.0 mm/hr 0.00 in0.0 mm
12:45 AM 29.9°F-1.2°C 24.5°F-4.2°C 80% 4.9 mph WSW7.9 kmh WSW 5.8 mph9.3 kmh 29.95 in1014.2 mb 0.00 in0.0 mm 0.00 in/hr0.0 mm/hr 0.00 in0.0 mm
12:40 AM 30.1°F-1.1°C 24.7°F-4.1°C 80% 5.3 mph SW8.5 kmh SW 5.8 mph9.3 kmh 29.95 in1014.2 mb 0.00 in0.0 mm 0.00 in/hr0.0 mm/hr 0.00 in0.0 mm
12:35 AM 30.2°F-1.0°C 24.8°F-4.0°C 80% 3.3 mph SW5.3 kmh SW 5.1 mph8.2 kmh 29.96 in1014.6 mb 0.00 in0.0 mm 0.00 in/hr0.0 mm/hr 0.00 in0.0 mm
12:30 AM 30.2°F-1.0°C 24.8°F-4.0°C 80% 4.0 mph WSW6.4 kmh WSW 5.6 mph9.0 kmh 29.96 in1014.6 mb 0.00 in0.0 mm 0.00 in/hr0.0 mm/hr 0.00 in0.0 mm
12:25 AM 30.1°F-1.1°C 24.7°F-4.1°C 80% 4.3 mph SW6.9 kmh SW 5.6 mph9.0 kmh 29.96 in1014.6 mb 0.00 in0.0 mm 0.00 in/hr0.0 mm/hr 0.00 in0.0 mm
12:20 AM 29.9°F-1.2°C 24.5°F-4.2°C 80% 3.4 mph SW5.5 kmh SW 5.4 mph8.7 kmh 29.95 in1014.2 mb 0.00 in0.0 mm 0.00 in/hr0.0 mm/hr 0.00 in0.0 mm
12:15 AM 30.1°F-1.1°C 24.7°F-4.1°C 80% 4.2 mph SSW6.8 kmh SSW 5.4 mph8.7 kmh 29.95 in1014.2 mb 0.00 in0.0 mm 0.00 in/hr0.0 mm/hr 0.00 in0.0 mm
12:10 AM 30.1°F-1.1°C 24.3°F-4.3°C 79% 3.3 mph WSW5.3 kmh WSW 4.0 mph6.4 kmh 29.96 in1014.6 mb 0.00 in0.0 mm 0.00 in/hr0.0 mm/hr 0.00 in0.0 mm
12:05 AM 30.2°F-1.0°C 24.5°F-4.2°C 79% 2.0 mph SW3.2 kmh SW 4.5 mph7.2 kmh 29.96 in1014.6 mb 0.00 in0.0 mm 0.00 in/hr0.0 mm/hr 0.00 in0.0 mm
12:00 AM 30.4°F-0.9°C 24.7°F-4.1°C 79% 2.3 mph WSW3.7 kmh WSW 4.5 mph7.2 kmh 29.96 in1014.6 mb 0.00 in0.0 mm 0.00 in/hr0.0 mm/hr 0.00 in0.0 mm